This is the latest recevied weather packets stored in our database for station/object W7JFO-3. If no packets are shown the sender has not sent any weather packets the latest 10 day(s).
| Time | Temp. | Humidity | Pressure | Rain* | Wind** | Luminosity | Snow |
|---|---|---|---|---|---|---|---|
| 1777689112 | 16.67° C | 31% | 1011.7 hPa | 0 mm | - | 18 W/m² | - |
| 1777688212 | 16.67° C | 29% | 1011.7 hPa | 0 mm | - | 32 W/m² | - |
| 1777687312 | 17.22° C | 28% | 1011.8 hPa | 0 mm | - | 46 W/m² | - |
| 1777686412 | 17.22° C | 27% | 1011.7 hPa | 0 mm | - | 60 W/m² | - |
| 1777685512 | 17.78° C | 27% | 1011.6 hPa | 0 mm | - | 83 W/m² | - |
| 1777684612 | 18.33° C | 25% | 1011.6 hPa | 0 mm | - | 139 W/m² | - |
| 1777683712 | 18.33° C | 26% | 1011.7 hPa | 0 mm | - | 149 W/m² | - |
| 1777682812 | 18.33° C | 25% | 1012 hPa | 0 mm | - | 163 W/m² | - |
| 1777681912 | 18.33° C | 25% | 1011.9 hPa | 0 mm | - | 183 W/m² | - |
| 1777681012 | 18.33° C | 25% | 1011.7 hPa | 0 mm | - | 165 W/m² | - |
| 1777680112 | 18.89° C | 25% | 1011.6 hPa | 0 mm | - | 142 W/m² | - |
| 1777679212 | 20° C | 25% | 1011.9 hPa | 0 mm | - | 202 W/m² | - |
| 1777678312 | 20° C | 25% | 1012.1 hPa | 0 mm | - | 420 W/m² | - |
| 1777677412 | 20.56° C | 25% | 1012.1 hPa | 0 mm | - | 497 W/m² | - |
| 1777676512 | 20.56° C | 25% | 1012.1 hPa | 0 mm | - | 596 W/m² | - |
| 1777675613 | 20.56° C | 25% | 1012.3 hPa | 0 mm | - | 642 W/m² | - |
| 1777674713 | 20° C | 25% | 1012.5 hPa | 0 mm | - | 661 W/m² | - |
| 1777673813 | 20.56° C | 23% | 1012.6 hPa | 0 mm | - | 679 W/m² | - |
| 1777672913 | 20° C | 23% | 1012.5 hPa | 0 mm | - | 721 W/m² | - |
| 1777672013 | 20.56° C | 26% | 1012.5 hPa | 0 mm | - | 747 W/m² | - |
| 1777671113 | 20° C | 26% | 1012.9 hPa | 0 mm | - | 761 W/m² | - |
| 1777670213 | 19.44° C | 27% | 1013 hPa | 0 mm | - | 779 W/m² | - |
| 1777669313 | 19.44° C | 28% | 1013.1 hPa | 0 mm | - | 779 W/m² | - |
| 1777668413 | 18.89° C | 32% | 1013.1 hPa | 0 mm | - | 76 W/m² | - |
| 1777667513 | 18.89° C | 31% | 1013.4 hPa | 0 mm | - | 65 W/m² | - |
* Rain latest hour (hover to see other rain measurements)
** Current wind speed in m/s (hover to see current wind gust speed)